Time;durP1;ratioP1;P1;durP2;ratioP2;P2;SDS_P1;SDS_P2;PMS_P1;PMS_P2;Temp;Humidity;BMP_temperature;BMP_pressure;BME280_temperature;BME280_humidity;BME280_pressure;Samples;Min_cycle;Max_cycle;Signal;HPM_P1;HPM_P2
2021/01/08 00:01:10;;;;;;;10.55;8.00;;;;;;;3.07;64.79;96282.98;1787216;79;21054;-56
2021/01/08 00:03:40;;;;;;;11.60;8.65;;;;;;;3.00;65.17;96285.45;1771441;79;21558;-55
2021/01/08 00:06:09;;;;;;;10.32;8.23;;;;;;;3.02;65.23;96287.03;1784167;79;21086;-55
2021/01/08 00:08:36;;;;;;;10.08;7.40;;;;;;;3.06;65.15;96291.56;1787557;79;21331;-55
2021/01/08 00:11:06;;;;;;;8.55;6.05;;;;;;;3.06;65.21;96292.84;1788848;79;21192;-55
2021/01/08 00:13:36;;;;;;;5.95;4.22;;;;;;;3.04;65.27;96289.09;1778366;80;21181;-56
2021/01/08 00:16:06;;;;;;;6.97;5.00;;;;;;;2.92;65.27;96293.48;1827857;78;21149;-56
2021/01/08 00:18:33;;;;;;;8.23;5.40;;;;;;;2.60;65.80;96294.47;1756842;80;21582;-57
2021/01/08 00:21:01;;;;;;;6.30;5.33;;;;;;;2.44;66.34;96296.84;1755912;80;21972;-57
2021/01/08 00:23:28;;;;;;;7.30;5.72;;;;;;;2.39;66.62;96287.25;1766264;80;22020;-56
2021/01/08 00:25:56;;;;;;;7.53;5.60;;;;;;;2.38;66.84;96294.11;1757827;79;21141;-56
2021/01/08 00:28:24;;;;;;;6.25;5.30;;;;;;;2.45;66.96;96293.40;1743495;82;21125;-56
2021/01/08 00:30:52;;;;;;;8.30;6.25;;;;;;;2.53;67.00;96296.46;1779269;80;21601;-56
2021/01/08 00:33:21;;;;;;;8.65;6.87;;;;;;;2.60;66.96;96295.75;1771507;79;21473;-57
2021/01/08 00:35:48;;;;;;;10.70;6.78;;;;;;;2.64;66.98;96290.86;1764092;80;21082;-57
2021/01/08 00:38:16;;;;;;;9.78;7.85;;;;;;;2.72;66.89;96295.66;1769340;80;21177;-57
2021/01/08 00:40:43;;;;;;;7.00;5.95;;;;;;;2.77;66.79;96298.84;1739928;81;21191;-57
2021/01/08 00:43:11;;;;;;;7.70;6.08;;;;;;;2.83;66.93;96298.58;1826831;78;21588;-54
2021/01/08 00:45:39;;;;;;;6.72;5.80;;;;;;;2.90;67.01;96299.13;1823055;78;21198;-55
2021/01/08 00:48:07;;;;;;;6.10;4.80;;;;;;;2.97;66.64;96299.23;1823605;78;21584;-55
2021/01/08 00:50:35;;;;;;;6.22;4.45;;;;;;;2.93;66.22;96297.72;1743932;80;21180;-55
2021/01/08 00:53:02;;;;;;;6.85;4.87;;;;;;;2.51;66.65;96302.53;1762749;81;21141;-55
2021/01/08 00:55:30;;;;;;;7.17;5.30;;;;;;;2.00;67.81;96304.66;1818259;78;21062;-55
2021/01/08 00:58:00;;;;;;;5.58;4.62;;;;;;;1.73;68.65;96306.63;1820456;78;21197;-55
2021/01/08 01:00:28;;;;;;;6.25;5.33;;;;;;;1.62;69.25;96307.86;1757743;80;21325;-54
2021/01/08 01:02:55;;;;;;;8.45;6.10;;;;;;;1.51;69.59;96306.16;1786844;79;21133;-56
2021/01/08 01:05:23;;;;;;;7.40;5.00;;;;;;;1.40;70.14;96309.61;1815954;78;21157;-54
2021/01/08 01:07:51;;;;;;;5.03;4.47;;;;;;;1.42;70.24;96306.54;1827758;78;21037;-55
2021/01/08 01:10:19;;;;;;;6.60;4.50;;;;;;;1.40;70.54;96301.94;1755486;81;21829;-55
2021/01/08 01:12:47;;;;;;;7.43;5.13;;;;;;;1.35;70.98;96305.95;1820664;77;21069;-53
2021/01/08 01:15:17;;;;;;;7.58;5.60;;;;;;;1.38;71.03;96304.98;1842719;77;21125;-53
2021/01/08 01:17:46;;;;;;;8.93;5.40;;;;;;;1.29;71.38;96308.73;1832342;77;21120;-54
2021/01/08 01:20:14;;;;;;;8.03;5.15;;;;;;;1.08;71.53;96303.52;1840446;77;21552;-54
2021/01/08 01:22:41;;;;;;;6.33;4.50;;;;;;;0.97;71.92;96306.95;1822531;77;21881;-53
2021/01/08 01:25:11;;;;;;;6.90;5.10;;;;;;;0.95;72.30;96301.49;1834755;77;21064;-55
2021/01/08 01:27:38;;;;;;;7.50;5.90;;;;;;;0.94;72.51;96298.54;1842106;77;21195;-55
2021/01/08 01:30:10;;;;;;;6.92;5.37;;;;;;;0.94;72.54;96296.84;1838101;77;21481;-55
2021/01/08 01:32:38;;;;;;;5.87;5.28;;;;;;;1.02;72.92;96299.09;1832098;77;21057;-52
2021/01/08 01:35:07;;;;;;;8.15;5.37;;;;;;;1.10;72.89;96294.09;1840417;77;21423;-53
2021/01/08 01:37:35;;;;;;;7.15;5.42;;;;;;;1.22;72.54;96286.41;1837885;77;21121;-53
2021/01/08 01:40:04;;;;;;;6.67;4.67;;;;;;;1.35;72.25;96285.92;1822310;77;21495;-54
2021/01/08 01:42:32;;;;;;;6.55;4.92;;;;;;;1.45;71.80;96281.68;1822031;77;21480;-54
2021/01/08 01:45:00;;;;;;;6.72;5.45;;;;;;;1.41;71.80;96283.13;1838229;77;21081;-54
2021/01/08 01:47:27;;;;;;;6.53;5.37;;;;;;;1.36;71.94;96291.43;1835764;77;21545;-54
2021/01/08 01:49:56;;;;;;;8.88;5.83;;;;;;;1.43;72.00;96284.75;1795912;77;26452;-53
2021/01/08 01:52:23;;;;;;;7.85;5.95;;;;;;;1.58;71.64;96282.03;1835456;77;21148;-54
2021/01/08 01:54:51;;;;;;;8.30;5.65;;;;;;;1.66;71.34;96270.20;1813900;77;21097;-55
2021/01/08 01:57:19;;;;;;;7.85;5.55;;;;;;;1.68;70.80;96268.86;1833872;77;21545;-53
2021/01/08 01:59:46;;;;;;;7.22;5.70;;;;;;;1.65;70.88;96277.50;1822558;77;21510;-54
2021/01/08 02:02:52;;;;;;;7.83;6.33;;;;;;;1.68;70.80;96274.83;1840460;77;21136;-54
2021/01/08 02:05:20;;;;;;;8.55;6.37;;;;;;;1.74;70.71;96263.50;1833509;77;21493;-54
2021/01/08 02:08:09;;;;;;;7.10;5.78;;;;;;;1.80;70.50;96265.36;1834842;77;21069;-53
2021/01/08 02:10:44;;;;;;;6.67;5.20;;;;;;;1.83;70.07;96255.47;1821771;77;21569;-53
2021/01/08 02:13:16;;;;;;;8.58;5.60;;;;;;;1.81;69.92;96249.13;1773146;79;22247;-53
2021/01/08 02:15:44;;;;;;;7.28;5.87;;;;;;;;;;1834905;77;21166;-54
2021/01/08 02:18:12;;;;;;;6.03;5.20;;;;;;;1.88;69.70;96259.94;1822901;77;21061;-54
2021/01/08 02:20:40;;;;;;;9.48;7.22;;;;;;;1.86;69.46;96249.38;1739420;80;21117;-53
2021/01/08 02:23:14;;;;;;;7.90;5.80;;;;;;;1.86;69.40;96254.06;1828831;77;21105;-53
2021/01/08 02:25:41;;;;;;;9.50;6.53;;;;;;;1.76;69.30;96248.49;1793431;77;21434;-52
2021/01/08 02:31:01;;;;;;;6.93;5.97;;;;;;;1.50;69.98;96254.66;1849091;75;22418;-55
2021/01/08 02:33:28;;;;;;;6.85;5.30;;;;;;;1.38;70.27;96261.52;1814113;78;21061;-53
2021/01/08 02:35:59;;;;;;;5.87;5.13;;;;;;;1.28;70.42;96257.20;1819525;78;22197;-54
2021/01/08 02:38:27;;;;;;;9.48;5.78;;;;;;;1.16;70.76;96253.41;1798594;78;21124;-53
2021/01/08 02:40:55;;;;;;;9.15;6.25;;;;;;;1.00;71.16;96252.33;1826658;78;28349;-53
2021/01/08 02:43:24;;;;;;;9.65;6.80;;;;;;;0.80;71.73;96255.19;1828661;78;21606;-53
2021/01/08 02:45:52;;;;;;;8.80;6.60;;;;;;;0.62;72.20;96254.14;1823546;78;21491;-53
2021/01/08 02:48:21;;;;;;;9.38;6.72;;;;;;;0.53;72.70;96254.03;1822294;78;22297;-53
2021/01/08 02:50:48;;;;;;;6.55;5.45;;;;;;;0.57;72.88;96247.55;1819803;78;21079;-54
2021/01/08 02:53:16;;;;;;;9.35;6.47;;;;;;;0.55;72.79;96250.97;1829594;78;21164;-53
2021/01/08 02:55:57;;;;;;;8.55;5.70;;;;;;;0.43;72.94;96241.22;1740262;81;21203;-53
2021/01/08 02:58:25;;;;;;;7.83;5.53;;;;;;;0.33;73.08;96247.55;1756236;79;21104;-54
2021/01/08 03:00:55;;;;;;;;;;;;;;;0.25;73.17;96243.16;1761062;80;21257;-54
2021/01/08 03:03:23;;;;;;;7.47;5.50;;;;;;;0.21;73.35;96241.59;1739434;80;20623;-55
2021/01/08 03:05:51;;;;;;;7.80;5.60;;;;;;;0.25;73.53;96236.33;1716758;82;21607;-56
2021/01/08 03:08:19;;;;;;;9.05;6.40;;;;;;;0.32;73.28;96238.22;1722079;82;21130;-55
2021/01/08 03:10:46;;;;;;;7.87;5.97;;;;;;;0.39;73.17;96238.38;1750519;81;21177;-55
2021/01/08 03:13:14;;;;;;;7.97;6.05;;;;;;;0.52;73.07;96245.16;1746521;81;21319;-54
2021/01/08 03:15:41;;;;;;;9.13;6.40;;;;;;;0.64;72.82;96244.73;1735830;80;21075;-55
2021/01/08 03:18:09;;;;;;;9.00;6.90;;;;;;;0.74;72.44;96241.39;1740452;82;21511;-55
2021/01/08 03:20:37;;;;;;;9.38;6.97;;;;;;;0.79;72.11;96252.27;1726979;80;21132;-55
2021/01/08 03:23:05;;;;;;;10.20;7.20;;;;;;;0.76;72.04;96253.65;1743407;81;21214;-55
2021/01/08 03:25:32;;;;;;;10.83;7.93;;;;;;;0.77;71.89;96254.47;1741206;81;21413;-55
2021/01/08 03:28:00;;;;;;;11.40;7.37;;;;;;;0.80;71.90;96257.73;1733954;81;21123;-55
2021/01/08 03:30:27;;;;;;;11.88;7.53;;;;;;;0.82;71.85;96247.47;1747055;81;21063;-55
2021/01/08 03:32:56;;;;;;;8.33;6.62;;;;;;;0.86;71.72;96243.92;1751090;81;21137;-55
2021/01/08 03:35:24;;;;;;;13.38;8.10;;;;;;;0.89;71.60;96230.59;1743515;81;21583;-55
2021/01/08 03:37:52;;;;;;;12.58;7.97;;;;;;;0.89;71.77;96230.59;1751298;81;21213;-56
2021/01/08 03:40:20;;;;;;;10.88;7.75;;;;;;;0.87;71.23;96249.41;1752913;81;21170;-55
2021/01/08 03:42:47;;;;;;;11.33;7.70;;;;;;;0.87;71.23;96260.89;1753584;81;21551;-54
2021/01/08 03:45:15;;;;;;;11.97;7.85;;;;;;;0.77;71.20;96244.25;1748349;80;21144;-55
2021/01/08 03:47:42;;;;;;;11.85;7.58;;;;;;;0.71;71.40;96250.44;1750810;81;21151;-55
2021/01/08 03:50:10;;;;;;;9.73;7.47;;;;;;;0.67;71.25;96249.69;1741402;81;23623;-55
2021/01/08 03:52:38;;;;;;;9.78;7.67;;;;;;;0.61;71.25;96257.59;1744604;80;21095;-55
2021/01/08 03:55:08;;;;;;;11.10;7.53;;;;;;;0.61;71.29;96255.05;1744727;81;21099;-56
2021/01/08 03:57:35;;;;;;;11.65;7.85;;;;;;;0.63;71.36;96261.38;1737537;81;21626;-55
2021/01/08 04:00:08;;;;;;;10.00;7.53;;;;;;;0.67;71.26;96271.85;1746411;81;21186;-55
2021/01/08 04:02:35;;;;;;;11.05;7.33;;;;;;;0.67;71.26;96271.85;1751083;81;21214;-55
2021/01/08 04:05:06;;;;;;;10.25;7.03;;;;;;;0.62;70.92;96267.36;1751078;80;26292;-56
2021/01/08 04:07:33;;;;;;;9.73;6.87;;;;;;;0.50;70.92;96267.36;1742521;81;21569;-55
2021/01/08 04:10:01;;;;;;;8.28;6.25;;;;;;;0.31;70.78;96268.02;1755243;81;21514;-56
2021/01/08 04:12:29;;;;;;;9.25;6.90;;;;;;;0.14;71.42;96272.86;1750715;81;21084;-55
2021/01/08 04:14:56;;;;;;;6.80;5.50;;;;;;;0.02;71.71;96266.47;1752708;81;22449;-55
2021/01/08 04:17:24;;;;;;;8.73;6.65;;;;;;;-0.09;72.12;96262.98;1742725;81;22007;-56
2021/01/08 04:19:52;;;;;;;7.55;5.60;;;;;;;-0.21;72.49;96261.69;1745598;81;21171;-55
2021/01/08 04:22:20;;;;;;;8.93;6.10;;;;;;;-0.25;72.84;96267.78;1740624;81;21066;-56
2021/01/08 04:24:48;;;;;;;8.50;6.17;;;;;;;-0.21;72.94;96272.33;1747163;81;21069;-54
2021/01/08 04:27:15;;;;;;;8.33;6.60;;;;;;;-0.05;72.91;96272.22;1754364;81;21362;-55
2021/01/08 04:29:45;;;;;;;9.45;6.92;;;;;;;-0.05;72.91;96272.22;1749930;80;21628;-55
2021/01/08 04:32:12;;;;;;;13.55;8.20;;;;;;;0.14;72.79;96283.06;1746107;81;21528;-55
2021/01/08 04:34:40;;;;;;;17.15;9.50;;;;;;;0.29;72.47;96285.08;1747387;81;22248;-55
2021/01/08 04:37:08;;;;;;;16.00;9.80;;;;;;;0.40;72.09;96286.00;1737976;81;21052;-55
2021/01/08 04:39:37;;;;;;;16.48;9.85;;;;;;;0.51;71.85;96277.94;1742073;81;21210;-55
2021/01/08 04:42:05;;;;;;;13.32;8.88;;;;;;;0.62;71.73;96278.84;1728623;80;21582;-55
2021/01/08 04:44:33;;;;;;;13.60;8.07;;;;;;;0.73;71.52;96271.63;1738792;82;21579;-55
2021/01/08 04:47:00;;;;;;;12.65;8.40;;;;;;;0.85;71.19;96272.44;1709616;82;21170;-55
2021/01/08 04:49:28;;;;;;;14.05;8.70;;;;;;;0.97;70.91;96270.33;1740509;81;21195;-56
2021/01/08 04:51:55;;;;;;;13.75;8.48;;;;;;;1.03;70.54;96265.81;1720954;82;21214;-56
2021/01/08 04:54:23;;;;;;;13.32;8.30;;;;;;;1.10;70.31;96272.80;1681632;82;21150;-54
2021/01/08 04:56:54;;;;;;;12.13;8.15;;;;;;;1.15;70.04;96270.93;1711643;81;21155;-55
2021/01/08 04:59:24;;;;;;;10.53;7.55;;;;;;;1.17;69.50;96265.31;1722097;81;21068;-55
2021/01/08 05:01:52;;;;;;;10.70;7.05;;;;;;;1.16;69.26;96271.30;1733541;81;21120;-55
2021/01/08 05:04:21;;;;;;;8.48;6.72;;;;;;;1.19;69.14;96264.80;1740993;81;21384;-55
2021/01/08 05:06:51;;;;;;;9.08;6.75;;;;;;;1.24;69.14;96264.63;1738948;81;21144;-55
2021/01/08 05:09:18;;;;;;;8.03;6.20;;;;;;;1.24;69.14;96264.63;1738038;80;21115;-55
2021/01/08 05:11:47;;;;;;;8.13;6.60;;;;;;;1.22;68.54;96258.30;1736744;80;21148;-55
2021/01/08 05:14:15;;;;;;;8.48;6.33;;;;;;;1.21;68.48;96265.56;1751935;81;21137;-55
2021/01/08 05:16:43;;;;;;;9.73;6.50;;;;;;;1.19;68.50;96266.53;1742972;81;21187;-55
2021/01/08 05:19:13;;;;;;;;;;;;;;;1.18;68.51;96264.40;1737616;81;21072;-55
2021/01/08 05:21:42;;;;;;;9.45;6.53;;;;;;;1.12;68.55;96268.48;1742272;81;20217;-55
2021/01/08 05:24:11;;;;;;;9.00;7.28;;;;;;;1.04;68.66;96276.89;1737732;80;21064;-55
2021/01/08 05:26:38;;;;;;;9.33;7.35;;;;;;;1.01;68.84;96275.27;1744713;81;21480;-55
2021/01/08 05:29:07;;;;;;;11.75;6.85;;;;;;;1.03;68.89;96276.49;1736205;81;21392;-55
2021/01/08 05:31:34;;;;;;;11.90;7.28;;;;;;;1.02;68.63;96275.67;1740117;81;21148;-55
2021/01/08 05:34:03;;;;;;;9.03;6.60;;;;;;;1.02;68.63;96275.67;1731859;80;21080;-55
2021/01/08 05:36:31;;;;;;;9.35;6.65;;;;;;;1.02;68.44;96274.81;1742552;80;21563;-55
2021/01/08 05:39:00;;;;;;;9.43;6.90;;;;;;;0.95;68.31;96278.50;1723399;83;21226;-55
2021/01/08 05:41:30;;;;;;;9.10;6.95;;;;;;;0.80;68.50;96279.91;1742561;80;21383;-55
2021/01/08 05:43:59;;;;;;;10.58;6.87;;;;;;;0.73;68.92;96274.19;1738678;81;21103;-55
2021/01/08 05:46:37;;;;;;;;;;;;;;;0.73;68.92;96274.19;1755536;81;21136;-54
2021/01/08 05:49:07;;;;;;;12.00;8.13;;;;;;;0.70;69.17;96271.74;1737019;80;20405;-56
2021/01/08 05:51:38;;;;;;;11.33;7.92;;;;;;;0.67;69.36;96262.91;1743560;82;21142;-56
2021/01/08 05:54:07;;;;;;;13.30;9.40;;;;;;;0.66;69.51;96262.55;1749710;80;21383;-56
2021/01/08 05:56:36;;;;;;;26.17;16.70;;;;;;;0.61;69.63;96260.58;1725993;81;21136;-57
2021/01/08 05:59:07;;;;;;;28.73;19.60;;;;;;;0.45;70.06;96256.03;1725214;80;21131;-55
2021/01/08 06:01:37;;;;;;;24.10;16.25;;;;;;;0.45;70.06;96256.03;1729819;82;21171;-55
2021/01/08 06:04:06;;;;;;;24.05;15.53;;;;;;;0.48;70.43;96265.31;1739445;82;21603;-56
2021/01/08 06:06:42;;;;;;;24.00;15.60;;;;;;;0.48;70.43;96265.31;1726152;81;21358;-54
2021/01/08 06:09:15;;;;;;;22.17;14.63;;;;;;;0.50;70.38;96266.91;1734475;80;21158;-55
2021/01/08 06:11:45;;;;;;;22.75;14.78;;;;;;;0.49;70.37;96272.92;1741692;82;21170;-54
2021/01/08 06:14:16;;;;;;;22.10;14.87;;;;;;;0.49;70.26;96266.53;1743219;81;21174;-55
2021/01/08 06:16:46;;;;;;;25.45;15.10;;;;;;;0.50;70.18;96278.84;1745353;81;21171;-55
2021/01/08 06:19:15;;;;;;;20.43;14.63;;;;;;;0.50;70.18;96278.84;1739305;81;21196;-55
2021/01/08 06:21:45;;;;;;;22.93;15.20;;;;;;;0.52;70.35;96284.72;1751399;81;21178;-55
2021/01/08 06:24:26;;;;;;;25.85;14.75;;;;;;;0.58;70.34;96288.80;1742484;81;21126;-55
2021/01/08 06:26:54;;;;;;;21.33;14.30;;;;;;;0.63;69.88;96297.13;1747611;81;21848;-55
2021/01/08 06:29:23;;;;;;;22.87;14.85;;;;;;;0.71;70.05;96306.16;1750970;81;21086;-56
2021/01/08 06:32:09;;;;;;;24.60;14.65;;;;;;;0.93;69.69;96309.67;1745703;81;22206;-55
2021/01/08 06:34:45;;;;;;;21.40;14.23;;;;;;;0.93;69.69;96309.67;1757017;81;21700;-58
2021/01/08 06:37:14;;;;;;;23.60;15.20;;;;;;;1.00;69.29;96310.64;1753841;79;21145;-55
2021/01/08 06:39:45;;;;;;;25.40;15.10;;;;;;;1.05;69.06;96317.72;1755371;81;21068;-55
2021/01/08 06:42:27;;;;;;;23.67;15.32;;;;;;;1.13;68.97;96312.75;1755117;81;21051;-57
2021/01/08 06:44:57;;;;;;;25.23;15.55;;;;;;;1.23;68.32;96317.48;1752870;79;21387;-57
2021/01/08 06:47:30;;;;;;;24.15;15.93;;;;;;;1.23;68.32;96317.48;1734996;82;21568;-56
2021/01/08 06:49:59;;;;;;;25.23;16.27;;;;;;;1.30;68.27;96327.02;1750799;81;21080;-55
2021/01/08 06:52:27;;;;;;;;;;;;;;;1.31;68.25;96317.62;1735094;82;21157;-55
2021/01/08 06:54:54;;;;;;;24.12;15.43;;;;;;;1.37;68.25;96327.62;1753016;81;20223;-56
2021/01/08 06:57:22;;;;;;;22.85;15.63;;;;;;;1.40;68.22;96336.45;1744499;81;21607;-56
2021/01/08 06:59:56;;;;;;;23.80;15.80;;;;;;;1.43;68.14;96333.33;1752449;81;21116;-56
2021/01/08 07:02:24;;;;;;;23.57;15.72;;;;;;;1.52;68.00;96335.14;1752703;79;21136;-58
2021/01/08 07:04:52;;;;;;;;;;;;;;;1.54;67.57;96337.19;1751090;81;21143;-57
2021/01/08 07:07:23;;;;;;;20.80;14.13;;;;;;;1.43;67.60;96340.14;1752711;81;20235;-57
2021/01/08 07:09:51;;;;;;;24.98;14.07;;;;;;;1.39;67.70;96339.44;1746242;80;22268;-55
2021/01/08 07:12:24;;;;;;;23.05;14.58;;;;;;;1.40;67.82;96342.39;1744869;79;21068;-56
2021/01/08 07:14:53;;;;;;;23.27;14.18;;;;;;;1.43;67.92;96325.66;1755544;81;21611;-56
2021/01/08 07:17:32;;;;;;;22.30;13.68;;;;;;;1.52;68.10;96338.98;1742882;80;21120;-55
2021/01/08 07:20:01;;;;;;;489.95;327.07;;;;;;;1.56;67.68;96338.81;1727554;82;21084;-55
2021/01/08 07:22:40;;;;;;;91.55;56.05;;;;;;;1.59;68.11;96342.95;1749134;81;21375;-54
2021/01/08 07:25:13;;;;;;;24.45;16.57;;;;;;;1.71;68.20;96338.66;1732621;81;21525;-57
2021/01/08 07:27:42;;;;;;;21.82;13.45;;;;;;;1.81;67.63;96337.84;1757678;80;21496;-57
2021/01/08 07:30:13;;;;;;;17.90;12.65;;;;;;;1.81;67.35;96341.23;1735852;82;21514;-55
2021/01/08 07:32:49;;;;;;;18.82;12.88;;;;;;;1.80;67.60;96343.39;1733702;81;21565;-55
2021/01/08 07:35:27;;;;;;;17.07;12.50;;;;;;;1.87;67.78;96343.15;1744640;81;21500;-56
2021/01/08 07:38:14;;;;;;;16.77;12.07;;;;;;;1.92;67.68;96348.91;1735887;80;21941;-55
2021/01/08 07:40:56;;;;;;;21.50;14.35;;;;;;;2.00;67.64;96356.66;1741938;81;21099;-55
2021/01/08 07:43:34;;;;;;;18.73;12.85;;;;;;;2.12;67.66;96359.20;1736164;81;21123;-55
2021/01/08 07:46:05;;;;;;;16.97;12.18;;;;;;;2.26;67.35;96354.78;1741857;81;21166;-54
2021/01/08 07:48:35;;;;;;;19.82;13.35;;;;;;;2.36;67.07;96365.02;1731141;81;21202;-53
2021/01/08 07:51:11;;;;;;;17.30;12.28;;;;;;;2.43;66.85;96373.27;1736116;81;21583;-54
2021/01/08 07:53:49;;;;;;;17.07;11.83;;;;;;;2.46;66.75;96368.48;1741665;81;21199;-56
2021/01/08 07:56:20;;;;;;;20.48;12.23;;;;;;;2.51;66.64;96368.66;1731179;81;21583;-53
2021/01/08 07:59:05;;;;;;;15.32;11.25;;;;;;;2.55;66.77;96370.67;1730649;82;21067;-53
2021/01/08 08:01:36;;;;;;;17.57;12.80;;;;;;;2.58;66.72;96373.94;1729302;82;22959;-53
2021/01/08 08:04:08;;;;;;;18.90;13.68;;;;;;;2.68;66.44;96374.38;1721063;82;21202;-53
2021/01/08 08:06:39;;;;;;;22.65;15.28;;;;;;;2.75;66.30;96375.77;1730387;80;21177;-54
2021/01/08 08:09:10;;;;;;;21.48;14.98;;;;;;;2.79;65.79;96379.48;1734026;82;21620;-52
2021/01/08 08:11:39;;;;;;;22.17;15.23;;;;;;;2.78;65.74;96377.81;1720170;82;21158;-52
2021/01/08 08:14:11;;;;;;;19.42;13.65;;;;;;;2.79;65.85;96380.30;1734186;81;21706;-51
2021/01/08 08:16:39;;;;;;;21.45;15.40;;;;;;;2.84;65.75;96376.27;1742035;81;21231;-52
2021/01/08 08:19:14;;;;;;;18.48;13.45;;;;;;;2.84;65.62;96370.69;1737524;81;21566;-52
2021/01/08 08:21:48;;;;;;;23.92;15.78;;;;;;;2.84;65.52;96374.53;1744857;81;21897;-51
2021/01/08 08:24:17;;;;;;;22.13;15.32;;;;;;;2.62;65.92;96361.00;1739610;81;21174;-51
2021/01/08 08:26:47;;;;;;;25.70;16.93;;;;;;;2.58;66.56;96352.59;1746827;81;22158;-52
2021/01/08 08:29:17;;;;;;;24.47;16.62;;;;;;;2.67;66.77;96345.80;1744463;81;22007;-54
2021/01/08 08:31:50;;;;;;;22.05;15.75;;;;;;;2.81;66.53;96350.31;1745076;81;21546;-52
2021/01/08 08:34:29;;;;;;;21.65;15.60;;;;;;;2.88;66.18;96347.89;1727254;81;21140;-52
2021/01/08 08:37:09;;;;;;;20.85;14.65;;;;;;;2.95;65.96;96344.61;1740707;80;21183;-52
2021/01/08 08:39:37;;;;;;;128.07;75.52;;;;;;;3.04;65.80;96346.77;1766602;79;21932;-52
2021/01/08 08:42:05;;;;;;;27.85;18.48;;;;;;;3.17;65.84;96339.80;1736790;80;21619;-52
2021/01/08 08:44:42;;;;;;;21.00;14.75;;;;;;;3.31;65.76;96343.40;1754065;80;21060;-51
2021/01/08 08:47:11;;;;;;;17.77;13.08;;;;;;;3.48;65.38;96343.08;1746319;81;21077;-52
2021/01/08 08:49:41;;;;;;;16.73;12.80;;;;;;;3.58;64.94;96349.44;1748124;81;21112;-52
2021/01/08 08:52:08;;;;;;;18.48;13.15;;;;;;;3.66;64.46;96349.09;1743223;81;21204;-51
2021/01/08 08:54:40;;;;;;;19.20;13.70;;;;;;;3.70;64.17;96351.91;1740920;81;21147;-52
2021/01/08 08:57:10;;;;;;;19.62;13.58;;;;;;;3.74;64.00;96350.02;1745177;80;21583;-52
2021/01/08 08:59:45;;;;;;;22.13;12.70;;;;;;;3.76;63.83;96346.92;1737986;80;21155;-50
2021/01/08 09:02:26;;;;;;;17.35;12.93;;;;;;;3.74;63.97;96340.58;1748042;80;21198;-51
2021/01/08 09:04:58;;;;;;;16.65;12.37;;;;;;;3.76;64.00;96351.59;1734342;82;21294;-52
2021/01/08 09:07:44;;;;;;;17.65;11.60;;;;;;;3.74;64.11;96350.02;1755138;81;21203;-50
2021/01/08 09:10:22;;;;;;;20.85;15.10;;;;;;;3.74;63.89;96353.41;1756454;80;21195;-52
2021/01/08 09:13:13;;;;;;;14.00;10.72;;;;;;;3.77;63.85;96360.15;1730361;82;21521;-52
2021/01/08 09:16:08;;;;;;;12.98;9.93;;;;;;;3.80;64.05;96359.55;1755767;81;21127;-52
2021/01/08 09:19:17;;;;;;;14.05;9.98;;;;;;;3.85;63.84;96352.45;1764362;80;21378;-52
2021/01/08 09:21:50;;;;;;;13.25;9.48;;;;;;;3.85;63.70;96355.02;1741622;82;21182;-52
2021/01/08 09:24:33;;;;;;;12.15;9.88;;;;;;;3.88;63.23;96351.46;1755522;81;21066;-51
2021/01/08 09:27:03;;;;;;;14.47;10.82;;;;;;;3.87;63.01;96364.76;1726435;82;21569;-51
2021/01/08 09:29:33;;;;;;;14.45;10.58;;;;;;;3.86;63.03;96359.27;1737789;82;21079;-52
2021/01/08 09:32:03;;;;;;;13.50;10.30;;;;;;;3.87;63.31;96360.09;1733640;80;21299;-51
2021/01/08 09:34:32;;;;;;;14.83;11.15;;;;;;;3.88;63.31;96357.87;1728573;82;21084;-51
2021/01/08 09:37:15;;;;;;;17.15;11.30;;;;;;;3.87;63.02;96360.09;1739155;81;21092;-51
2021/01/08 09:39:43;;;;;;;15.15;11.22;;;;;;;3.91;63.16;96359.48;1758799;81;21540;-51
2021/01/08 09:42:12;;;;;;;16.42;10.82;;;;;;;3.93;62.96;96362.80;1761094;81;21620;-51
2021/01/08 09:44:41;;;;;;;17.50;11.97;;;;;;;3.98;62.92;96369.83;1755504;79;21199;-50
2021/01/08 09:49:52;;;;;;;16.77;12.30;;;;;;;4.17;62.50;96365.47;1861640;75;25687;-52
2021/01/08 09:52:28;;;;;;;16.07;11.30;;;;;;;4.15;62.08;96369.86;1833808;76;21183;-50
2021/01/08 09:54:57;;;;;;;15.38;11.73;;;;;;;4.17;61.75;96372.35;1818366;78;21490;-51
2021/01/08 09:57:33;;;;;;;15.30;10.55;;;;;;;4.15;61.51;96365.19;1826017;76;21502;-50
2021/01/08 10:00:03;;;;;;;18.60;11.97;;;;;;;4.15;61.53;96366.00;1817971;78;21153;-51
2021/01/08 10:02:44;;;;;;;16.55;11.70;;;;;;;4.15;61.30;96358.30;1799229;79;21115;-52
2021/01/08 10:05:34;;;;;;;16.48;10.98;;;;;;;4.11;61.09;96349.53;1801170;79;21079;-51
2021/01/08 10:08:04;;;;;;;17.15;10.78;;;;;;;4.09;61.11;96353.45;1804632;78;21561;-50
2021/01/08 10:10:38;;;;;;;16.52;11.10;;;;;;;4.07;61.05;96342.90;1775810;79;21591;-51
2021/01/08 10:13:10;;;;;;;16.15;11.12;;;;;;;4.04;60.98;96334.87;1805112;79;21479;-50
2021/01/08 10:15:41;;;;;;;13.78;9.65;;;;;;;4.02;61.20;96329.00;1799018;79;21152;-50
2021/01/08 10:18:22;;;;;;;18.77;10.75;;;;;;;4.05;60.80;96325.00;1803201;79;21484;-51
2021/01/08 10:21:05;;;;;;;18.07;10.45;;;;;;;4.10;60.75;96330.73;1793449;79;21598;-51
2021/01/08 10:23:43;;;;;;;17.17;10.48;;;;;;;4.10;60.68;96323.03;1804505;78;22124;-51
2021/01/08 10:26:14;;;;;;;17.65;11.22;;;;;;;4.08;60.63;96321.00;1794527;79;21213;-51
2021/01/08 10:28:55;;;;;;;14.47;10.38;;;;;;;4.10;60.67;96313.23;1793405;79;21134;-51
2021/01/08 10:31:24;;;;;;;19.07;11.40;;;;;;;4.13;60.65;96313.05;1796603;79;21106;-52
2021/01/08 10:33:52;;;;;;;;;;;;;;;4.16;60.63;96312.47;1784920;79;21380;-52
2021/01/08 10:36:20;;;;;;;16.57;11.25;;;;;;;4.18;60.47;96308.08;1784519;79;20219;-52
2021/01/08 10:38:48;;;;;;;15.70;11.05;;;;;;;4.16;60.57;96303.91;1804276;79;21039;-53
2021/01/08 10:41:16;;;;;;;16.25;11.20;;;;;;;4.12;60.65;96294.72;1801142;78;21070;-51
2021/01/08 10:43:45;;;;;;;15.43;11.43;;;;;;;4.11;60.67;96299.03;1724724;80;21583;-51
2021/01/08 10:46:14;;;;;;;14.47;10.60;;;;;;;4.11;60.73;96295.61;1734384;82;21382;-51
2021/01/08 10:48:43;;;;;;;17.48;10.75;;;;;;;4.12;60.76;96299.39;1737770;81;21178;-50
2021/01/08 10:51:11;;;;;;;17.42;12.00;;;;;;;4.12;60.76;96295.53;1735849;81;21147;-50
2021/01/08 10:53:39;;;;;;;15.38;10.95;;;;;;;4.15;60.77;96287.69;1755990;80;21168;-50
2021/01/08 10:56:08;;;;;;;16.75;10.50;;;;;;;4.18;60.59;96284.97;1747063;81;21072;-51
2021/01/08 10:58:39;;;;;;;16.32;10.93;;;;;;;4.21;60.51;96280.11;1735026;80;21453;-51
2021/01/08 11:01:06;;;;;;;11.95;8.80;;;;;;;4.19;60.53;96278.94;1732539;82;21494;-51
2021/01/08 11:03:34;;;;;;;11.30;8.90;;;;;;;4.16;60.11;96278.23;1729683;82;21575;-51
2021/01/08 11:06:02;;;;;;;13.55;10.08;;;;;;;4.14;59.83;96269.32;1738938;80;21127;-51
2021/01/08 11:08:30;;;;;;;14.78;10.35;;;;;;;4.13;59.90;96268.97;1737449;81;21513;-51
2021/01/08 11:10:58;;;;;;;13.22;9.95;;;;;;;4.13;60.01;96262.55;1725064;81;22388;-50
2021/01/08 11:13:25;;;;;;;12.58;10.05;;;;;;;4.11;60.11;96259.66;1735478;81;21111;-50
2021/01/08 11:15:53;;;;;;;14.75;10.18;;;;;;;4.11;60.10;96266.94;1736742;80;21143;-50
2021/01/08 11:18:21;;;;;;;16.52;10.90;;;;;;;4.12;60.05;96267.30;1749323;81;21706;-51
2021/01/08 11:20:49;;;;;;;14.47;10.30;;;;;;;4.13;59.98;96272.81;1732810;81;21044;-50
2021/01/08 11:23:16;;;;;;;16.97;10.28;;;;;;;4.10;60.08;96274.25;1743609;81;21367;-51
2021/01/08 11:25:44;;;;;;;15.20;10.78;;;;;;;4.05;59.99;96278.32;1746021;81;21577;-50
2021/01/08 11:28:12;;;;;;;13.90;9.90;;;;;;;4.00;60.22;96274.34;1734433;81;21107;-51
2021/01/08 11:30:40;;;;;;;12.20;9.40;;;;;;;3.99;59.67;96274.77;1730809;80;21116;-51
2021/01/08 11:33:07;;;;;;;12.25;8.95;;;;;;;4.01;59.58;96281.97;1731949;81;21187;-51
2021/01/08 11:35:36;;;;;;;11.88;8.33;;;;;;;4.01;59.36;96281.11;1735858;81;21190;-51
2021/01/08 11:38:04;;;;;;;10.98;8.10;;;;;;;4.01;59.29;96281.11;1735522;80;21162;-51
2021/01/08 11:40:32;;;;;;;14.20;8.98;;;;;;;3.97;59.28;96278.33;1743611;80;21124;-50
2021/01/08 11:43:03;;;;;;;11.60;8.70;;;;;;;3.93;59.28;96272.52;1734815;81;21076;-51
2021/01/08 11:45:32;;;;;;;9.80;7.58;;;;;;;3.90;59.43;96275.23;1741457;81;21187;-52
2021/01/08 11:48:01;;;;;;;9.45;6.78;;;;;;;3.87;58.72;96273.64;1750085;81;22216;-52
2021/01/08 11:50:29;;;;;;;13.30;7.92;;;;;;;3.83;58.10;96269.58;1749922;81;21086;-50
2021/01/08 11:52:57;;;;;;;11.53;8.10;;;;;;;3.79;58.45;96271.90;1736311;81;21092;-51
2021/01/08 11:55:31;;;;;;;12.47;7.47;;;;;;;3.76;59.09;96265.63;1756861;81;21583;-52